This is the latest recevied weather packets stored in our database for station/object KN4CI-1. If no packets are shown the sender has not sent any weather packets the latest 10 day(s).
| Time | Temp. | Humidity | Pressure | Rain* | Wind** | Luminosity | Snow |
|---|---|---|---|---|---|---|---|
| 1787452331 | 25° C | 23% | 1017.6 hPa | 0 mm | 0 m/s | - | - |
| 1787451117 | 25.56° C | 30% | 1016.6 hPa | 0 mm | 0 m/s | - | - |
| 1787449914 | 25.56° C | 28% | 1015.6 hPa | 0 mm | 0 m/s | - | - |
| 1787449610 | 25.56° C | 27% | 1015.6 hPa | 0 mm | 0 m/s | - | - |
| 1787447803 | 26.11° C | 26% | 1015.6 hPa | 0 mm | 0 m/s | - | - |
| 1787446897 | 26.11° C | 23% | 1014.6 hPa | 0 mm | 0 m/s | - | - |
| 1787442360 | 27.78° C | 16% | 1014.6 hPa | 0 mm | 0 m/s | - | - |
| 1787440249 | 29.44° C | 13% | 1014.6 hPa | 0 mm | 0 m/s | - | - |
| 1787439949 | 29.44° C | 13% | 1014.6 hPa | 0 mm | 0 m/s | - | - |
| 1787439341 | 29.44° C | 13% | 1014.6 hPa | 0 mm | 0 m/s | - | - |
| 1787437531 | 31.67° C | 12% | 1015.6 hPa | 0 mm | 0 m/s | - | - |
| 1787437230 | 31.67° C | 12% | 1015.6 hPa | 0 mm | 0 m/s | - | - |
| 1787436924 | 31.67° C | 12% | 1015.6 hPa | 0 mm | 0 m/s | - | - |
| 1787436624 | 31.67° C | 12% | 1015.6 hPa | 0 mm | 0 m/s | - | - |
| 1787434513 | 32.78° C | 12% | 1014.6 hPa | 0 mm | 0 m/s | - | - |
| 1787430581 | 33.33° C | 11% | 1015.6 hPa | 0 mm | 0 m/s | - | - |
| 1787428174 | 33.33° C | 11% | 1015.6 hPa | 0 mm | 0 m/s | - | - |
| 1787427569 | 33.33° C | 11% | 1015.6 hPa | 0 mm | 0 m/s | - | - |
| 1787426662 | 33.33° C | 12% | 1016.6 hPa | 0 mm | 0 m/s | - | - |
| 1787423942 | 32.22° C | 12% | 1016.6 hPa | 0 mm | 0 m/s | - | - |
| 1787423637 | 32.22° C | 12% | 1016.6 hPa | 0 mm | 0 m/s | - | - |
| 1787421816 | 32.22° C | 12% | 1016.6 hPa | 0 mm | 0 m/s | - | - |
| 1787421512 | 32.22° C | 12% | 1016.6 hPa | 0 mm | 0 m/s | - | - |
| 1787420308 | 31.67° C | 12% | 1017.6 hPa | 0 mm | 0 m/s | - | - |
| 1787411556 | 27.78° C | 19% | 1017.6 hPa | 0 mm | 0 m/s | - | - |
* Rain latest hour (hover to see other rain measurements)
** Current wind speed in m/s (hover to see current wind gust speed)